Time;durP1;ratioP1;P1;durP2;ratioP2;P2;SDS_P1;SDS_P2;PMS_P1;PMS_P2;Temp;Humidity;BMP_temperature;BMP_pressure;BME280_temperature;BME280_humidity;BME280_pressure;Samples;Min_cycle;Max_cycle;Signal;HPM_P1;HPM_P2
2023/03/16 00:02:03;;;;;;;5.30;2.42;;;;;;;1.36;73.12;98634.78;4485114;31;20134;-65
2023/03/16 00:04:31;;;;;;;6.75;3.05;;;;;;;1.37;73.29;98649.34;4485766;31;20096;-65
2023/03/16 00:06:58;;;;;;;9.38;2.22;;;;;;;1.32;73.43;98652.19;4485789;31;20080;-66
2023/03/16 00:09:29;;;;;;;7.30;3.33;;;;;;;1.34;73.42;98655.50;4485748;31;20084;-66
2023/03/16 00:11:58;;;;;;;5.85;2.28;;;;;;;1.32;73.59;98647.03;4485756;31;20092;-66
2023/03/16 00:14:25;;;;;;;3.87;2.12;;;;;;;1.33;73.46;98663.34;4485580;31;20101;-66
2023/03/16 00:16:52;;;;;;;7.50;2.72;;;;;;;1.31;73.76;98665.16;4485849;31;20112;-66
2023/03/16 00:19:21;;;;;;;8.40;2.97;;;;;;;1.29;73.94;98661.81;4485568;31;20116;-65
2023/03/16 00:21:50;;;;;;;4.90;2.60;;;;;;;1.23;74.27;98658.66;4485753;31;20087;-66
2023/03/16 00:24:18;;;;;;;7.30;2.85;;;;;;;1.21;74.40;98663.09;4485638;31;20100;-65
2023/03/16 00:26:47;;;;;;;4.22;1.85;;;;;;;1.21;74.54;98664.81;4485738;31;20120;-66
2023/03/16 00:29:14;;;;;;;3.22;2.03;;;;;;;1.16;75.01;98665.03;4485510;31;20096;-65
2023/03/16 00:31:42;;;;;;;7.03;3.20;;;;;;;1.17;74.96;98664.16;4485641;32;20096;-66
2023/03/16 00:34:11;;;;;;;5.60;2.70;;;;;;;1.16;75.05;98674.53;4485536;31;20188;-65
2023/03/16 00:36:38;;;;;;;6.95;2.90;;;;;;;1.14;75.33;98677.22;4485696;31;20088;-66
2023/03/16 00:39:06;;;;;;;6.25;2.33;;;;;;;1.12;75.78;98667.87;4485420;31;20092;-66
2023/03/16 00:41:36;;;;;;;4.57;2.85;;;;;;;1.08;76.00;98680.09;4485562;31;20121;-66
2023/03/16 00:44:04;;;;;;;5.78;2.47;;;;;;;1.00;76.72;98669.34;4485691;32;20568;-66
2023/03/16 00:46:32;;;;;;;7.82;3.50;;;;;;;0.93;77.00;98671.41;4485611;31;20100;-66
2023/03/16 00:49:01;;;;;;;8.18;2.70;;;;;;;0.95;77.16;98673.91;4485668;31;20151;-66
2023/03/16 00:51:32;;;;;;;5.95;2.95;;;;;;;0.93;77.53;98675.75;4485605;32;20091;-66
2023/03/16 00:54:00;;;;;;;9.77;3.05;;;;;;;0.96;77.38;98665.28;4485688;32;20167;-66
2023/03/16 00:56:27;;;;;;;7.75;3.78;;;;;;;0.92;77.69;98664.56;4485670;31;20072;-66
2023/03/16 00:58:56;;;;;;;7.47;2.92;;;;;;;0.92;77.73;98659.41;4485546;31;20600;-66
2023/03/16 01:01:24;;;;;;;11.50;3.42;;;;;;;0.89;78.02;98667.31;4485419;31;20084;-66
2023/03/16 01:03:53;;;;;;;9.85;3.75;;;;;;;0.81;78.56;98661.72;4485611;32;20445;-66
2023/03/16 01:06:21;;;;;;;5.37;2.62;;;;;;;0.80;78.99;98672.94;4485371;31;20096;-66
2023/03/16 01:08:48;;;;;;;8.55;3.17;;;;;;;0.77;79.19;98670.53;4485460;31;20089;-66
2023/03/16 01:11:18;;;;;;;5.68;2.70;;;;;;;0.75;79.73;98668.03;4485300;31;20152;-66
2023/03/16 01:13:48;;;;;;;5.00;3.53;;;;;;;0.72;79.95;98678.50;4483828;31;20160;-66
2023/03/16 01:16:17;;;;;;;5.85;2.70;;;;;;;0.73;80.19;98672.44;4484145;32;20144;-66
2023/03/16 01:18:46;;;;;;;8.18;2.92;;;;;;;0.70;80.34;98673.41;4485481;31;20144;-66
2023/03/16 01:21:14;;;;;;;10.50;2.78;;;;;;;0.69;80.65;98676.06;4485204;31;20080;-66
2023/03/16 01:23:43;;;;;;;9.98;3.40;;;;;;;0.72;80.46;98673.34;4485434;31;20116;-66
2023/03/16 01:26:11;;;;;;;5.75;3.03;;;;;;;0.75;80.25;98675.75;4485159;31;20080;-66
2023/03/16 01:28:38;;;;;;;5.53;3.22;;;;;;;0.78;80.16;98700.56;4485241;32;20100;-66
2023/03/16 01:31:09;;;;;;;4.05;2.95;;;;;;;0.83;79.84;98671.06;4485351;31;20092;-66
2023/03/16 01:33:37;;;;;;;5.97;2.92;;;;;;;0.84;79.83;98682.19;4485391;31;20451;-66
2023/03/16 01:36:07;;;;;;;6.12;2.55;;;;;;;0.82;80.03;98692.59;4485350;31;20169;-66
2023/03/16 01:38:35;;;;;;;6.37;2.87;;;;;;;0.77;80.53;98681.66;4484103;32;20116;-66
2023/03/16 01:41:04;;;;;;;10.90;2.25;;;;;;;0.77;80.78;98680.84;4484992;32;20163;-66
2023/03/16 01:43:33;;;;;;;5.57;3.00;;;;;;;0.78;80.76;98687.66;4484726;31;20116;-66
2023/03/16 01:46:03;;;;;;;9.15;2.65;;;;;;;0.75;80.86;98683.50;4485274;32;20084;-66
2023/03/16 01:48:56;;;;;;;8.55;4.12;;;;;;;0.73;81.11;98694.78;4485398;31;20167;-66
2023/03/16 01:51:29;;;;;;;7.85;2.90;;;;;;;0.68;81.48;98697.59;4485143;31;20231;-66
2023/03/16 01:54:19;;;;;;;8.10;2.70;;;;;;;0.68;81.64;98701.03;4485273;31;20556;-66
2023/03/16 01:56:56;;;;;;;5.65;2.90;;;;;;;0.62;81.93;98697.91;4483677;32;20080;-66
2023/03/16 01:59:28;;;;;;;4.85;3.40;;;;;;;0.65;81.94;98706.34;4485117;31;20112;-66
2023/03/16 02:01:55;;;;;;;6.03;2.40;;;;;;;0.68;81.85;98703.59;4483930;32;20121;-66
2023/03/16 02:04:42;;;;;;;6.60;2.72;;;;;;;0.62;82.21;98714.22;4484805;32;20126;-66
2023/03/16 02:07:10;;;;;;;6.65;2.92;;;;;;;0.61;82.42;98712.53;4484903;31;20107;-66
2023/03/16 02:09:45;;;;;;;7.93;3.10;;;;;;;0.58;82.77;98706.72;4483533;32;20093;-66
2023/03/16 02:12:17;;;;;;;4.93;3.40;;;;;;;0.52;83.38;98713.00;4484916;31;20122;-66
2023/03/16 02:14:47;;;;;;;14.35;3.37;;;;;;;0.49;83.80;98721.72;4484801;31;20103;-66
2023/03/16 02:17:42;;;;;;;8.88;3.35;;;;;;;0.45;84.40;98727.91;4484594;32;20090;-66
2023/03/16 02:20:10;;;;;;;5.45;2.37;;;;;;;0.38;85.13;98726.56;4482590;31;20097;-66
2023/03/16 02:22:42;;;;;;;5.05;2.85;;;;;;;0.31;85.73;98730.34;4484434;32;20438;-66
2023/03/16 02:25:10;;;;;;;8.48;2.70;;;;;;;0.30;86.17;98726.94;4482755;32;20092;-66
2023/03/16 02:27:50;;;;;;;4.05;2.80;;;;;;;0.31;86.15;98733.75;4483448;32;20119;-66
2023/03/16 02:30:18;;;;;;;8.18;3.17;;;;;;;0.32;86.53;98734.59;4483490;32;20100;-66
2023/03/16 02:32:48;;;;;;;5.82;4.45;;;;;;;0.31;86.62;98736.31;4483384;32;20113;-66
2023/03/16 02:35:15;;;;;;;7.37;3.30;;;;;;;0.34;86.74;98740.50;4484453;31;20118;-66
2023/03/16 02:37:42;;;;;;;9.57;3.10;;;;;;;0.37;86.68;98744.69;4484318;31;20115;-66
2023/03/16 02:40:21;;;;;;;8.43;3.55;;;;;;;0.35;86.98;98743.00;4484169;32;20153;-66
2023/03/16 02:43:08;;;;;;;10.98;3.17;;;;;;;0.34;87.42;98751.63;4484534;31;20157;-66
2023/03/16 02:45:47;;;;;;;8.50;3.05;;;;;;;0.34;87.62;98754.22;4484490;31;20080;-66
2023/03/16 02:48:31;;;;;;;7.68;3.50;;;;;;;0.31;87.83;98759.50;4482844;32;20088;-66
2023/03/16 02:50:59;;;;;;;6.83;2.83;;;;;;;0.36;87.83;98754.12;4482926;32;20105;-66
2023/03/16 02:53:26;;;;;;;9.75;3.58;;;;;;;0.33;88.11;98768.03;4484339;31;20592;-66
2023/03/16 02:55:54;;;;;;;7.97;3.58;;;;;;;0.32;88.32;98775.81;4484406;31;20134;-66
2023/03/16 02:58:22;;;;;;;7.30;3.42;;;;;;;0.31;88.44;98767.25;4484249;31;20164;-66
2023/03/16 03:00:49;;;;;;;7.70;3.20;;;;;;;0.31;88.75;98779.28;4483837;31;20094;-66
2023/03/16 03:03:17;;;;;;;7.18;3.92;;;;;;;0.25;89.03;98771.84;4483957;32;20108;-66
2023/03/16 03:05:44;;;;;;;7.22;3.20;;;;;;;0.25;89.31;98787.31;4483770;31;20532;-66
2023/03/16 03:08:12;;;;;;;8.40;3.62;;;;;;;0.15;90.24;98794.63;4484113;31;20087;-66
2023/03/16 03:10:40;;;;;;;10.20;3.25;;;;;;;0.10;90.79;98797.41;4482945;32;20135;-66
2023/03/16 03:13:07;;;;;;;7.30;3.37;;;;;;;0.07;91.26;98800.12;4483680;31;20092;-66
2023/03/16 03:15:35;;;;;;;7.80;3.58;;;;;;;0.06;91.63;98802.78;4483971;31;20097;-66
2023/03/16 03:18:02;;;;;;;17.62;4.35;;;;;;;-0.06;92.55;98811.87;4483879;31;20080;-66
2023/03/16 03:20:31;;;;;;;10.93;3.87;;;;;;;-0.08;93.42;98803.41;4483717;31;20120;-66
2023/03/16 03:22:58;;;;;;;7.50;3.37;;;;;;;-0.07;93.55;98802.50;4483738;31;20160;-66
2023/03/16 03:25:26;;;;;;;11.20;4.10;;;;;;;-0.12;94.17;98814.75;4483931;31;20097;-66
2023/03/16 03:27:54;;;;;;;8.32;3.83;;;;;;;-0.13;94.45;98828.53;4483582;31;20165;-66
2023/03/16 03:30:23;;;;;;;5.97;3.62;;;;;;;-0.13;94.72;98813.09;4483798;32;20145;-66
2023/03/16 03:32:51;;;;;;;13.20;4.07;;;;;;;-0.19;95.25;98817.59;4483510;32;20084;-66
2023/03/16 03:35:20;;;;;;;10.50;3.85;;;;;;;-0.17;95.47;98821.84;4483854;31;20109;-66
2023/03/16 03:37:47;;;;;;;6.82;3.50;;;;;;;-0.23;96.05;98828.09;4483681;32;20072;-66
2023/03/16 03:40:17;;;;;;;7.82;3.55;;;;;;;-0.27;96.44;98832.56;4485961;32;20119;-66
2023/03/16 03:42:45;;;;;;;7.70;3.50;;;;;;;-0.31;96.94;98832.75;4486090;31;20544;-66
2023/03/16 03:45:13;;;;;;;7.82;4.10;;;;;;;-0.38;97.62;98837.31;4485812;31;20080;-66
2023/03/16 03:47:41;;;;;;;9.77;3.53;;;;;;;-0.40;97.96;98836.56;4485699;31;20114;-66
2023/03/16 03:50:10;;;;;;;7.32;3.10;;;;;;;-0.46;98.82;98835.06;4485819;31;20512;-66
2023/03/16 03:52:40;;;;;;;12.68;3.28;;;;;;;-0.32;98.52;98843.94;4486123;31;20084;-66
2023/03/16 03:55:08;;;;;;;8.60;3.78;;;;;;;-0.32;98.34;98836.22;4486163;31;20114;-66
2023/03/16 03:57:35;;;;;;;8.23;3.78;;;;;;;-0.39;99.15;98838.25;4485721;31;20165;-66
2023/03/16 04:00:12;;;;;;;12.13;3.55;;;;;;;-0.40;99.43;98846.84;4485921;31;20164;-66
2023/03/16 04:02:39;;;;;;;6.50;3.90;;;;;;;-0.45;99.46;98844.47;4485746;31;20430;-66
2023/03/16 04:05:10;;;;;;;7.20;3.05;;;;;;;-0.39;99.11;98845.97;4485951;31;20465;-66
2023/03/16 04:07:37;;;;;;;8.80;3.87;;;;;;;-0.40;99.10;98841.72;4485968;31;20106;-66
2023/03/16 04:10:06;;;;;;;5.95;3.40;;;;;;;-0.33;98.85;98844.84;4485697;32;20119;-66
2023/03/16 04:12:34;;;;;;;8.95;3.47;;;;;;;-0.38;99.19;98840.75;4485515;31;20122;-66
2023/03/16 04:15:03;;;;;;;8.07;3.28;;;;;;;-0.41;99.52;98851.19;4485615;31;20155;-66
2023/03/16 04:17:33;;;;;;;9.68;4.07;;;;;;;-0.32;98.63;98849.09;4484444;32;20092;-66
2023/03/16 04:20:09;;;;;;;11.00;4.22;;;;;;;-0.29;98.17;98847.22;4485890;31;20088;-66
2023/03/16 04:22:36;;;;;;;10.35;3.50;;;;;;;-0.26;98.08;98849.69;4485757;31;20175;-66
2023/03/16 04:25:04;;;;;;;8.95;4.85;;;;;;;-0.23;97.73;98854.69;4485827;31;20525;-66
2023/03/16 04:27:35;;;;;;;9.70;3.00;;;;;;;-0.26;98.26;98869.41;4485693;32;20382;-66
2023/03/16 04:30:06;;;;;;;12.18;4.18;;;;;;;-0.25;98.39;98869.34;4485795;32;20130;-66
2023/03/16 04:32:34;;;;;;;8.82;4.45;;;;;;;-0.32;98.83;98875.66;4485875;31;20476;-66
2023/03/16 04:35:01;;;;;;;8.55;3.92;;;;;;;-0.29;99.02;98878.09;4485472;31;20115;-66
2023/03/16 04:37:30;;;;;;;8.38;4.25;;;;;;;-0.33;99.33;98870.56;4485546;31;20100;-66
2023/03/16 04:39:59;;;;;;;5.82;3.55;;;;;;;-0.42;100.00;98874.41;4485428;32;20441;-66
2023/03/16 04:42:26;;;;;;;9.20;3.75;;;;;;;-0.52;100.00;98871.38;4485787;32;20523;-66
2023/03/16 04:44:54;;;;;;;9.35;3.67;;;;;;;-0.52;100.00;98873.13;4485443;31;20129;-66
2023/03/16 04:47:22;;;;;;;13.82;4.45;;;;;;;-0.57;100.00;98889.56;4485372;31;20092;-66
2023/03/16 04:49:49;;;;;;;10.98;4.87;;;;;;;-0.56;100.00;98882.69;4485278;31;20114;-66
2023/03/16 04:52:16;;;;;;;9.05;4.15;;;;;;;-0.62;100.00;98883.78;4485661;31;20100;-66
2023/03/16 04:54:44;;;;;;;9.18;5.00;;;;;;;-0.65;100.00;98893.38;4485687;31;20117;-66
2023/03/16 04:57:18;;;;;;;10.05;3.97;;;;;;;-0.66;100.00;98896.84;4485691;31;20405;-66
2023/03/16 04:59:46;;;;;;;11.10;5.18;;;;;;;-0.65;100.00;98901.06;4485149;31;20152;-66
2023/03/16 05:02:14;;;;;;;12.13;4.85;;;;;;;-0.57;100.00;98899.03;4485751;32;20625;-66
2023/03/16 05:04:41;;;;;;;16.45;4.95;;;;;;;-0.58;100.00;98910.22;4484724;32;20091;-66
2023/03/16 05:07:09;;;;;;;12.07;4.22;;;;;;;-0.59;100.00;98909.41;4470026;32;20084;-66
2023/03/16 05:09:36;;;;;;;9.70;4.47;;;;;;;-0.54;100.00;98907.47;4469960;32;20108;-66
2023/03/16 05:12:03;;;;;;;10.57;3.80;;;;;;;-0.51;100.00;98897.97;4482253;32;20613;-66
2023/03/16 05:14:31;;;;;;;10.68;4.03;;;;;;;-0.50;100.00;98910.75;4485465;32;20152;-66
2023/03/16 05:16:59;;;;;;;8.93;3.80;;;;;;;-0.46;100.00;98906.31;4485583;31;20122;-66
2023/03/16 05:19:26;;;;;;;7.12;3.95;;;;;;;-0.43;100.00;98914.72;4485026;32;20118;-66
2023/03/16 05:21:53;;;;;;;13.93;4.32;;;;;;;-0.39;100.00;98918.84;4485532;32;20097;-66
2023/03/16 05:24:20;;;;;;;12.37;4.57;;;;;;;-0.33;100.00;98920.34;4485302;32;20092;-66
2023/03/16 05:26:49;;;;;;;7.68;3.25;;;;;;;-0.31;100.00;98915.94;4485242;31;20114;-66
2023/03/16 05:29:17;;;;;;;8.05;3.83;;;;;;;-0.34;100.00;98913.50;4485421;32;20096;-66
2023/03/16 05:31:46;;;;;;;8.02;3.62;;;;;;;-0.23;100.00;98915.62;4485201;32;20127;-66
2023/03/16 05:34:13;;;;;;;5.97;3.25;;;;;;;-0.12;100.00;98920.31;4485211;31;20096;-66
2023/03/16 05:36:41;;;;;;;7.05;3.87;;;;;;;-0.06;99.96;98923.47;4481289;32;20115;-66
2023/03/16 05:39:10;;;;;;;6.40;4.05;;;;;;;0.02;98.90;98925.72;4468778;32;20495;-66
2023/03/16 05:41:38;;;;;;;14.13;4.22;;;;;;;0.09;98.21;98931.41;4467912;32;20595;-66
2023/03/16 05:44:06;;;;;;;15.00;4.50;;;;;;;0.12;97.68;98934.72;4476428;32;20096;-66
2023/03/16 05:46:34;;;;;;;8.60;3.47;;;;;;;0.19;97.17;98937.03;4484906;31;20102;-66
2023/03/16 05:49:02;;;;;;;11.52;4.47;;;;;;;0.27;96.24;98940.94;4484908;31;20475;-66
2023/03/16 05:51:29;;;;;;;10.40;4.18;;;;;;;0.35;95.73;98940.59;4484209;31;20104;-66
2023/03/16 05:53:57;;;;;;;9.50;4.25;;;;;;;0.46;94.76;98946.09;4483140;31;20497;-66
2023/03/16 05:56:27;;;;;;;11.60;4.47;;;;;;;0.58;94.24;98949.03;4484344;32;20107;-66
2023/03/16 05:58:55;;;;;;;7.50;3.47;;;;;;;0.53;94.34;98949.25;4477761;31;20481;-66
2023/03/16 06:01:23;;;;;;;8.25;3.65;;;;;;;0.53;95.02;98957.81;4480376;31;20088;-66
2023/03/16 06:03:51;;;;;;;8.60;4.25;;;;;;;0.56;95.12;98955.97;4477337;32;20108;-66
2023/03/16 06:06:21;;;;;;;10.85;3.87;;;;;;;0.62;94.97;98961.72;4484240;31;20118;-66
2023/03/16 06:08:49;;;;;;;11.98;4.50;;;;;;;0.58;94.69;98960.16;4479039;31;20095;-66
2023/03/16 06:11:17;;;;;;;10.63;3.70;;;;;;;0.66;94.80;98977.88;4482419;31;20119;-66
2023/03/16 06:13:44;;;;;;;8.55;3.42;;;;;;;0.69;94.87;98978.56;4482823;32;20537;-66
2023/03/16 06:16:13;;;;;;;11.85;4.50;;;;;;;0.73;94.71;98979.25;4481235;31;20110;-67
2023/03/16 06:18:40;;;;;;;10.77;4.37;;;;;;;0.79;94.98;98978.97;4482172;31;20119;-66
2023/03/16 06:21:08;;;;;;;10.30;5.10;;;;;;;0.79;95.48;98993.59;4482020;32;20137;-66
2023/03/16 06:23:36;;;;;;;9.35;3.67;;;;;;;0.76;95.97;98993.75;4483239;32;20101;-66
2023/03/16 06:26:04;;;;;;;10.45;4.30;;;;;;;0.73;96.46;98993.88;4479082;32;20104;-66
2023/03/16 06:28:32;;;;;;;16.40;4.37;;;;;;;0.74;96.96;98995.56;4482619;31;20115;-66
2023/03/16 06:30:59;;;;;;;10.52;4.87;;;;;;;0.70;97.65;98994.87;4482565;31;20126;-66
2023/03/16 06:33:28;;;;;;;22.20;4.72;;;;;;;0.78;97.37;98999.69;4483021;32;20096;-66
2023/03/16 06:35:55;;;;;;;12.07;5.10;;;;;;;0.80;97.15;99008.19;4484439;32;20117;-66
2023/03/16 06:38:23;;;;;;;9.32;5.18;;;;;;;0.88;96.78;99014.66;4480916;31;20153;-66
2023/03/16 06:40:52;;;;;;;7.30;3.72;;;;;;;0.95;96.31;99007.47;4481459;32;20148;-66
2023/03/16 06:43:20;;;;;;;8.65;4.32;;;;;;;0.99;96.42;99026.25;4480808;32;20161;-66
2023/03/16 06:45:48;;;;;;;10.55;4.65;;;;;;;1.03;96.40;99017.44;4482057;31;20160;-66
2023/03/16 06:48:15;;;;;;;8.75;3.58;;;;;;;1.04;96.79;99029.44;4481954;31;20100;-66
2023/03/16 06:50:45;;;;;;;8.38;4.35;;;;;;;1.24;95.61;99038.81;4469363;31;20123;-66
2023/03/16 06:53:12;;;;;;;9.15;3.60;;;;;;;1.23;94.22;99029.44;4468717;31;20120;-66
2023/03/16 06:55:40;;;;;;;10.73;5.97;;;;;;;1.27;94.93;99051.59;4481935;32;20130;-66
2023/03/16 06:58:07;;;;;;;11.50;3.70;;;;;;;1.29;95.31;99041.19;4482118;31;20126;-66
2023/03/16 07:00:35;;;;;;;15.77;5.90;;;;;;;1.44;94.94;99040.50;4480652;32;20382;-66
2023/03/16 07:03:03;;;;;;;19.25;7.97;;;;;;;1.51;94.59;99044.44;4481034;31;20097;-66
2023/03/16 07:05:31;;;;;;;18.60;6.55;;;;;;;1.48;95.03;99052.31;4482266;31;20610;-66
2023/03/16 07:07:58;;;;;;;8.93;5.03;;;;;;;1.61;95.21;99044.84;4481207;32;20437;-66
2023/03/16 07:10:26;;;;;;;8.25;4.12;;;;;;;1.55;94.64;99056.28;4482904;31;20430;-66
2023/03/16 07:12:54;;;;;;;12.55;5.37;;;;;;;1.68;95.14;99056.56;4478025;31;20100;-66
2023/03/16 07:15:24;;;;;;;16.73;5.12;;;;;;;1.72;94.01;99067.56;4484029;31;20254;-66
2023/03/16 07:17:52;;;;;;;7.32;4.25;;;;;;;1.86;93.39;99078.09;4485502;31;20100;-66
2023/03/16 07:20:20;;;;;;;11.48;5.10;;;;;;;1.88;94.08;99065.91;4481315;31;20561;-66
2023/03/16 07:22:49;;;;;;;9.65;4.87;;;;;;;1.95;93.31;99071.59;4480235;31;20529;-66
2023/03/16 07:25:17;;;;;;;11.90;5.25;;;;;;;2.02;92.05;99088.50;4483792;31;20103;-66
2023/03/16 07:27:46;;;;;;;9.05;4.43;;;;;;;2.14;92.26;99079.31;4483186;31;20122;-66
2023/03/16 07:30:14;;;;;;;11.07;4.93;;;;;;;2.18;91.37;99083.41;4481629;32;20136;-66
2023/03/16 07:32:42;;;;;;;11.48;4.62;;;;;;;2.30;91.92;99087.97;4483313;31;20142;-66
2023/03/16 07:35:10;;;;;;;15.75;6.00;;;;;;;2.19;91.62;99082.47;4481198;31;20152;-66
2023/03/16 07:37:38;;;;;;;9.77;4.70;;;;;;;2.29;91.19;99088.88;4483344;31;20457;-66
2023/03/16 07:40:08;;;;;;;12.00;5.40;;;;;;;2.45;91.30;99091.53;4483798;31;20457;-66
2023/03/16 07:42:36;;;;;;;11.85;5.30;;;;;;;2.65;89.92;99089.69;4481145;31;20631;-66
2023/03/16 07:45:04;;;;;;;9.52;4.57;;;;;;;2.64;88.65;99082.81;4480661;31;20149;-66
2023/03/16 07:47:32;;;;;;;8.98;4.25;;;;;;;2.81;87.12;99084.53;4474697;31;20093;-66
2023/03/16 07:50:00;;;;;;;9.05;4.55;;;;;;;2.92;86.46;99097.75;4479490;31;20179;-66
2023/03/16 07:52:28;;;;;;;12.05;5.40;;;;;;;2.96;85.64;99099.25;4483627;31;20487;-66
2023/03/16 07:54:56;;;;;;;12.00;5.68;;;;;;;2.91;85.43;99114.19;4484463;31;20076;-66
2023/03/16 07:57:23;;;;;;;9.13;4.32;;;;;;;2.94;86.34;99101.09;4482793;31;20131;-66
2023/03/16 07:59:51;;;;;;;9.10;5.37;;;;;;;3.04;83.93;99106.59;4479955;31;20081;-66
2023/03/16 08:02:20;;;;;;;8.98;3.80;;;;;;;2.93;84.76;99101.16;4480247;31;20153;-66
2023/03/16 08:04:48;;;;;;;10.27;4.50;;;;;;;3.11;83.00;99104.53;4483425;31;20092;-66
2023/03/16 08:07:15;;;;;;;9.73;4.55;;;;;;;3.16;81.76;99105.97;4481103;32;20179;-66
2023/03/16 08:09:44;;;;;;;10.48;4.93;;;;;;;3.13;80.96;99095.75;4481367;31;20109;-66
2023/03/16 08:12:13;;;;;;;14.75;5.87;;;;;;;3.26;81.17;99103.72;4481488;31;20097;-66
2023/03/16 08:14:40;;;;;;;6.25;3.92;;;;;;;3.54;81.80;99104.78;4481442;31;20096;-66
2023/03/16 08:17:08;;;;;;;9.27;4.75;;;;;;;3.60;79.86;99109.63;4482925;31;20175;-66
2023/03/16 08:19:36;;;;;;;10.05;4.37;;;;;;;3.69;79.49;99105.72;4484077;31;20528;-66
2023/03/16 08:22:04;;;;;;;5.22;3.85;;;;;;;3.80;77.94;99120.66;4481602;31;20597;-66
2023/03/16 08:24:32;;;;;;;14.15;5.22;;;;;;;3.60;75.59;99114.81;4475136;31;20104;-66
2023/03/16 08:27:00;;;;;;;13.18;5.07;;;;;;;3.77;77.75;99111.31;4482313;31;20229;-66
2023/03/16 08:29:29;;;;;;;8.68;3.87;;;;;;;3.88;73.80;99114.12;4484978;31;20158;-66
2023/03/16 08:31:56;;;;;;;10.48;5.18;;;;;;;3.85;75.14;99129.03;4481169;31;20478;-66
2023/03/16 08:34:25;;;;;;;8.63;4.07;;;;;;;3.92;74.39;99135.50;4482484;31;20112;-66
2023/03/16 08:36:53;;;;;;;7.12;4.43;;;;;;;3.90;74.88;99120.06;4487490;31;20400;-66
2023/03/16 08:39:21;;;;;;;7.18;3.55;;;;;;;4.00;73.67;99120.38;4480074;31;20127;-66
2023/03/16 08:41:49;;;;;;;11.23;4.12;;;;;;;3.97;74.51;99130.94;4481244;31;20135;-66
2023/03/16 08:44:18;;;;;;;11.52;3.87;;;;;;;3.96;73.67;99131.00;4469717;32;20073;-66
2023/03/16 08:46:46;;;;;;;8.75;3.58;;;;;;;4.14;74.37;99121.34;4476125;31;20126;-66
2023/03/16 08:49:13;;;;;;;9.85;5.45;;;;;;;4.44;71.71;99116.97;4482967;31;20119;-66
2023/03/16 08:51:41;;;;;;;9.45;4.35;;;;;;;4.25;72.28;99125.00;4484077;31;20219;-66
2023/03/16 08:54:11;;;;;;;11.18;4.18;;;;;;;4.38;70.13;99132.09;4479780;31;20140;-67
2023/03/16 08:56:38;;;;;;;15.93;4.80;;;;;;;4.78;69.62;99127.97;4477920;31;20104;-66
2023/03/16 08:59:05;;;;;;;9.90;4.75;;;;;;;4.98;68.64;99123.31;4481831;32;20432;-67
2023/03/16 09:01:36;;;;;;;6.22;3.65;;;;;;;4.96;66.99;99135.56;4480123;31;20685;-67
2023/03/16 09:04:04;;;;;;;9.25;4.35;;;;;;;4.65;67.40;99123.59;4480861;31;20100;-66
2023/03/16 09:06:31;;;;;;;7.05;3.80;;;;;;;4.81;69.08;99129.53;4479417;31;20140;-66
2023/03/16 09:08:59;;;;;;;13.02;4.53;;;;;;;4.75;67.85;99135.94;4476277;31;20148;-67
2023/03/16 09:11:29;;;;;;;7.62;3.90;;;;;;;4.67;65.65;99129.53;4477568;31;20178;-67
2023/03/16 09:13:57;;;;;;;11.52;3.83;;;;;;;4.95;66.15;99131.31;4481393;31;20112;-67
2023/03/16 09:16:24;;;;;;;9.40;3.83;;;;;;;5.26;66.18;99126.84;4482284;31;20161;-67
2023/03/16 09:18:52;;;;;;;8.63;3.80;;;;;;;5.49;61.54;99135.81;4480213;31;20469;-67
2023/03/16 09:21:20;;;;;;;7.03;3.17;;;;;;;5.38;61.06;99140.84;4481425;31;20085;-66
2023/03/16 09:23:47;;;;;;;7.40;4.20;;;;;;;5.21;60.59;99152.25;4482377;32;20092;-66
2023/03/16 09:26:15;;;;;;;8.52;3.78;;;;;;;5.11;60.64;99147.63;4479593;31;20116;-67
2023/03/16 09:28:42;;;;;;;7.10;3.58;;;;;;;5.29;60.84;99147.44;4481850;31;20092;-66
2023/03/16 09:31:16;;;;;;;10.65;4.20;;;;;;;5.54;59.75;99146.78;4481515;31;20168;-66
2023/03/16 09:33:45;;;;;;;7.50;3.40;;;;;;;5.38;61.82;99159.88;4477498;31;20112;-66
2023/03/16 09:36:13;;;;;;;12.35;3.78;;;;;;;5.39;60.13;99148.56;4480550;31;20741;-66
2023/03/16 09:38:42;;;;;;;10.75;4.47;;;;;;;5.53;61.05;99146.84;4480317;32;20104;-66
2023/03/16 09:41:52;;;;;;;7.12;4.00;;;;;;;5.73;59.65;99158.59;4481595;31;20152;-67
2023/03/16 09:44:41;;;;;;;6.60;3.70;;;;;;;5.96;61.50;99154.53;4432103;32;20654;-66
2023/03/16 09:47:10;;;;;;;10.88;4.20;;;;;;;6.20;58.81;99152.97;4432138;32;20113;-67
2023/03/16 09:49:46;;;;;;;12.85;4.93;;;;;;;6.02;58.91;99154.19;4437838;32;20100;-67
2023/03/16 09:52:41;;;;;;;7.97;4.07;;;;;;;6.29;60.89;99148.13;4448021;32;20113;-66
2023/03/16 09:55:25;;;;;;;10.77;4.00;;;;;;;6.30;60.76;99160.19;4428185;32;20527;-66
2023/03/16 09:57:54;;;;;;;8.45;4.10;;;;;;;6.31;58.04;99146.25;4427368;32;20249;-67
2023/03/16 10:00:24;;;;;;;10.20;4.50;;;;;;;6.21;58.43;99154.66;4422578;32;20180;-67
2023/03/16 10:02:51;;;;;;;9.18;4.12;;;;;;;6.38;58.83;99160.53;4416806;32;20109;-67
2023/03/16 10:05:21;;;;;;;7.43;3.40;;;;;;;6.25;56.48;99163.09;4433128;32;20176;-66
2023/03/16 10:08:09;;;;;;;6.18;3.72;;;;;;;6.18;56.60;99167.03;4437470;32;20175;-66
2023/03/16 10:11:10;;;;;;;9.30;4.22;;;;;;;6.24;56.67;99165.78;4440327;32;20263;-67
2023/03/16 10:13:47;;;;;;;7.35;4.32;;;;;;;6.56;56.68;99161.09;4428901;32;20093;-67
2023/03/16 10:16:22;;;;;;;8.02;4.62;;;;;;;6.63;56.03;99158.91;4417953;32;20148;-67
2023/03/16 10:18:57;;;;;;;8.50;4.05;;;;;;;6.58;55.62;99167.00;4436861;32;20108;-67
2023/03/16 10:21:25;;;;;;;14.85;4.07;;;;;;;6.72;54.30;99158.28;4446784;32;20363;-66
2023/03/16 10:23:53;;;;;;;10.18;4.00;;;;;;;6.84;53.23;99162.66;4480324;31;20088;-66
2023/03/16 10:26:30;;;;;;;11.05;4.25;;;;;;;6.77;52.21;99166.62;4480425;32;20088;-66
2023/03/16 10:28:59;;;;;;;6.95;3.92;;;;;;;6.89;52.48;99165.81;4478805;31;20163;-66
2023/03/16 10:31:27;;;;;;;7.00;4.03;;;;;;;6.90;50.69;99170.09;4474733;31;20143;-66
2023/03/16 10:34:00;;;;;;;9.65;3.75;;;;;;;6.89;49.78;99165.81;4477931;31;20123;-66
2023/03/16 10:36:32;;;;;;;6.78;3.70;;;;;;;6.76;49.89;99162.34;4476997;31;20092;-66
2023/03/16 10:39:01;;;;;;;8.27;3.83;;;;;;;6.97;49.43;99175.69;4476107;32;20092;-66
2023/03/16 10:41:31;;;;;;;8.20;3.62;;;;;;;7.05;49.24;99169.97;4477852;31;20164;-66
2023/03/16 10:44:16;;;;;;;6.97;3.28;;;;;;;6.85;50.39;99169.53;4478108;31;20882;-66
2023/03/16 10:46:48;;;;;;;4.40;2.95;;;;;;;6.85;48.93;99171.31;4479002;31;20179;-66
2023/03/16 10:49:34;;;;;;;6.70;3.15;;;;;;;7.07;48.41;99173.28;4478858;32;20165;-67
2023/03/16 10:52:14;;;;;;;5.70;2.80;;;;;;;7.07;46.09;99176.75;4481559;31;20100;-67
2023/03/16 10:54:48;;;;;;;6.80;3.55;;;;;;;7.29;47.27;99178.69;4481552;31;20159;-66
2023/03/16 10:57:19;;;;;;;7.57;3.60;;;;;;;7.37;46.61;99161.69;4482154;31;20392;-66
2023/03/16 10:59:48;;;;;;;7.68;3.10;;;;;;;7.70;47.04;99165.47;4484598;31;20119;-67
2023/03/16 11:02:19;;;;;;;5.97;2.97;;;;;;;7.57;47.72;99158.53;4484172;31;20519;-66
2023/03/16 11:04:46;;;;;;;7.70;4.07;;;;;;;7.65;47.08;99160.59;4481407;31;20593;-66
2023/03/16 11:07:19;;;;;;;7.85;3.17;;;;;;;7.76;47.46;99170.25;4479878;31;20111;-66
2023/03/16 11:09:47;;;;;;;7.03;3.50;;;;;;;7.93;46.62;99156.84;4482990;31;20184;-66
2023/03/16 11:12:23;;;;;;;7.45;3.37;;;;;;;7.99;45.82;99153.81;4482504;31;20130;-66
2023/03/16 11:14:51;;;;;;;4.35;2.47;;;;;;;8.06;42.76;99145.53;4479572;31;20138;-66
2023/03/16 11:17:27;;;;;;;5.95;2.72;;;;;;;8.17;42.80;99166.44;4480143;31;20096;-66
2023/03/16 11:20:04;;;;;;;10.77;3.50;;;;;;;7.79;41.92;99159.59;4474426;31;20130;-66
2023/03/16 11:22:32;;;;;;;6.05;3.10;;;;;;;7.39;42.37;99146.81;4481433;32;20112;-66
2023/03/16 11:25:04;;;;;;;4.37;2.10;;;;;;;7.13;41.86;99149.44;4479796;31;20480;-66
2023/03/16 11:27:42;;;;;;;4.85;2.42;;;;;;;7.48;42.16;99143.53;4476201;31;20097;-66
2023/03/16 11:30:28;;;;;;;7.03;2.37;;;;;;;7.73;41.42;99150.44;4480596;31;20116;-66
2023/03/16 11:32:59;;;;;;;6.55;2.40;;;;;;;7.87;42.14;99140.78;4480732;31;20118;-66
2023/03/16 11:35:32;;;;;;;4.97;2.40;;;;;;;8.04;41.35;99136.97;4481749;31;20109;-66
2023/03/16 11:38:12;;;;;;;4.18;2.47;;;;;;;8.39;40.98;99129.16;4482465;31;20106;-66
2023/03/16 11:41:05;;;;;;;3.62;2.30;;;;;;;8.38;39.91;99129.28;4483631;31;20096;-67
2023/03/16 11:43:40;;;;;;;4.07;2.05;;;;;;;8.13;38.36;99136.28;4481570;31;20122;-66
2023/03/16 11:46:40;;;;;;;4.90;2.35;;;;;;;8.11;38.70;99125.13;4484079;32;20119;-66
2023/03/16 11:49:31;;;;;;;3.10;1.83;;;;;;;8.15;37.58;99113.53;4476458;31;20418;-67
2023/03/16 11:52:10;;;;;;;5.65;1.60;;;;;;;8.11;37.41;99127.75;4480155;31;20100;-66